createdAt,value
2018-05-29T00:01:26.326Z,48.53
2018-05-29T00:03:56.762Z,48.53
2018-05-29T00:06:27.596Z,48.55
2018-05-29T00:20:16.174Z,48.59
2018-05-29T00:22:46.595Z,48.62
2018-05-29T00:25:16.690Z,49.01
2018-05-29T00:27:47.534Z,49.13
2018-05-29T00:30:17.655Z,49.02
2018-05-29T00:32:48.271Z,48.90
2018-05-29T00:35:19.143Z,48.79
2018-05-29T00:37:49.542Z,48.70
2018-05-29T00:40:20.398Z,48.64
2018-05-29T00:42:50.815Z,48.60
2018-05-29T00:45:21.671Z,48.57
2018-05-29T00:47:51.770Z,48.49
2018-05-29T00:50:22.202Z,48.45
2018-05-29T00:52:53.031Z,48.45
2018-05-29T00:55:37.029Z,48.47
2018-05-29T00:58:07.099Z,48.53
2018-05-29T01:00:37.519Z,48.51
2018-05-29T01:03:07.602Z,48.54
2018-05-29T01:05:38.018Z,48.50
2018-05-29T01:08:08.094Z,48.49
2018-05-29T01:10:38.180Z,48.48
2018-05-29T01:13:08.575Z,48.47
2018-05-29T01:15:38.666Z,48.46
2018-05-29T01:18:09.493Z,48.50
2018-05-29T01:20:40.382Z,48.51
2018-05-29T01:23:10.786Z,48.54
2018-05-29T01:25:41.634Z,48.51
2018-05-29T01:28:11.714Z,48.54
2018-05-29T01:30:42.906Z,48.55
2018-05-29T01:33:12.975Z,48.49
2018-05-29T01:35:44.384Z,48.53
2018-05-29T01:38:14.991Z,48.49
2018-05-29T01:40:45.627Z,48.43
2018-05-29T01:43:16.469Z,48.45
2018-05-29T01:45:46.902Z,48.45
2018-05-29T01:48:17.524Z,48.42
2018-05-29T01:50:48.385Z,48.39
2018-05-29T01:53:18.799Z,48.36
2018-05-29T01:55:49.420Z,48.39
2018-05-29T01:58:20.259Z,48.45
2018-05-29T02:00:50.383Z,48.47
2018-05-29T02:03:20.802Z,48.47
2018-05-29T02:05:50.896Z,48.45
2018-05-29T02:08:21.290Z,48.41
2018-05-29T02:10:51.391Z,48.41
2018-05-29T02:13:21.870Z,48.36
2018-05-29T02:15:53.103Z,48.33
2018-05-29T02:18:23.209Z,48.33
2018-05-29T02:20:53.979Z,48.33
2018-05-29T02:23:24.054Z,48.32
2018-05-29T02:25:54.171Z,48.27
2018-05-29T02:28:24.576Z,48.22
2018-05-29T02:30:55.435Z,48.24
2018-05-29T02:33:26.051Z,48.27
2018-05-29T02:35:56.906Z,48.25
2018-05-29T02:38:27.593Z,48.25
2018-05-29T02:40:57.687Z,48.24
2018-05-29T02:43:27.759Z,48.21
2018-05-29T02:45:58.622Z,48.21
2018-05-29T02:48:29.659Z,48.18
2018-05-29T02:51:00.091Z,48.14
2018-05-29T02:53:30.176Z,48.13
2018-05-29T02:56:01.359Z,48.15
2018-05-29T02:58:31.986Z,48.13
2018-05-29T03:01:02.961Z,48.10
2018-05-29T03:03:33.555Z,48.11
2018-05-29T03:06:04.170Z,48.08
2018-05-29T03:08:34.786Z,48.06
2018-05-29T03:12:19.619Z,48.08
2018-05-29T03:14:49.686Z,48.08
2018-05-29T03:17:20.882Z,48.04
2018-05-29T03:19:50.938Z,47.99
2018-05-29T03:22:21.161Z,47.95
2018-05-29T03:24:51.559Z,47.93
2018-05-29T03:27:21.651Z,47.93
2018-05-29T03:29:52.479Z,47.89
2018-05-29T03:32:22.903Z,47.88
2018-05-29T03:46:59.398Z,47.93
2018-05-29T03:49:29.483Z,47.85
2018-05-29T03:51:59.907Z,47.83
2018-05-29T03:54:30.523Z,47.86
2018-05-29T03:57:01.927Z,47.84
2018-05-29T03:59:31.998Z,47.81
2018-05-29T04:02:02.420Z,47.78
2018-05-29T04:04:32.483Z,47.75
2018-05-29T04:07:02.619Z,47.74
2018-05-29T04:09:33.031Z,47.75
2018-05-29T04:12:03.891Z,47.75
2018-05-29T04:14:33.969Z,47.76
2018-05-29T04:17:04.474Z,47.61
2018-05-29T04:19:35.221Z,47.48
2018-05-29T04:22:06.622Z,47.46
2018-05-29T04:24:36.690Z,47.48
2018-05-29T04:27:06.779Z,47.59
2018-05-29T04:29:36.850Z,47.78
2018-05-29T04:32:07.282Z,47.89
2018-05-29T04:34:37.351Z,47.92
2018-05-29T04:37:07.779Z,47.96
2018-05-29T04:39:37.924Z,48.04
2018-05-29T04:42:08.355Z,48.15
2018-05-29T04:44:38.629Z,48.37
2018-05-29T04:47:08.766Z,48.49
2018-05-29T04:49:39.032Z,48.64
2018-05-29T04:52:09.365Z,48.71
2018-05-29T04:54:39.430Z,48.68
2018-05-29T04:57:09.509Z,48.54
2018-05-29T04:59:40.370Z,48.49
2018-05-29T05:02:10.802Z,48.48
2018-05-29T05:04:41.634Z,48.44
2018-05-29T05:07:12.491Z,48.40
2018-05-29T05:09:42.911Z,49.06
2018-05-29T05:12:13.333Z,49.02
2018-05-29T05:14:44.782Z,49.06
2018-05-29T05:17:15.508Z,48.99
2018-05-29T05:19:46.146Z,48.90
2018-05-29T05:22:16.841Z,48.86
2018-05-29T05:24:47.510Z,48.86
2018-05-29T05:27:18.203Z,49.02
2018-05-29T05:29:48.873Z,49.35
2018-05-29T05:43:26.823Z,49.79
2018-05-29T05:45:57.524Z,49.66
2018-05-29T05:48:28.259Z,49.61
2018-05-29T05:50:58.929Z,49.53
2018-05-29T05:53:30.561Z,49.47
2018-05-29T05:56:01.986Z,49.42
2018-05-29T05:58:32.430Z,49.32
2018-05-29T06:01:03.465Z,49.33
2018-05-29T06:03:34.146Z,49.29
2018-05-29T06:06:04.207Z,49.29
2018-05-29T06:08:35.092Z,49.25
2018-05-29T06:11:05.782Z,49.23
2018-05-29T06:13:36.519Z,49.20
2018-05-29T06:16:07.222Z,49.18
2018-05-29T06:18:37.995Z,49.22
2018-05-29T06:21:08.711Z,49.27
2018-05-29T06:23:40.203Z,49.32
2018-05-29T06:26:11.439Z,49.34
2018-05-29T06:28:42.177Z,49.39
2018-05-29T06:31:12.871Z,49.39
2018-05-29T06:33:43.577Z,49.42
2018-05-29T06:36:14.275Z,49.34
2018-05-29T06:38:45.050Z,49.28
2018-05-29T06:41:15.918Z,49.41
2018-05-29T06:43:46.640Z,49.24
2018-05-29T06:46:17.389Z,49.12
2018-05-29T06:48:48.291Z,48.97
2018-05-29T06:51:18.979Z,48.84
2018-05-29T06:53:50.474Z,48.85
2018-05-29T06:56:21.166Z,48.84
2018-05-29T06:58:52.666Z,49.67
2018-05-29T07:01:23.378Z,49.64
2018-05-29T07:03:54.149Z,49.64
2018-05-29T07:06:25.027Z,49.59
2018-05-29T07:08:56.523Z,49.80
2018-05-29T07:11:27.228Z,49.71
2018-05-29T07:13:58.023Z,49.87
2018-05-29T07:16:28.730Z,49.71
2018-05-29T07:18:59.463Z,49.89
2018-05-29T07:21:30.168Z,49.94
2018-05-29T07:24:01.663Z,49.91
2018-05-29T07:26:32.358Z,49.96
2018-05-29T07:29:03.874Z,50.15
2018-05-29T07:31:34.567Z,49.89
2018-05-29T07:34:05.286Z,50.10
2018-05-29T07:36:36.002Z,49.95
2018-05-29T07:39:08.130Z,49.98
2018-05-29T07:41:38.839Z,49.92
2018-05-29T07:44:09.567Z,49.93
2018-05-29T07:46:41.019Z,49.92
2018-05-29T07:49:33.859Z,49.91
2018-05-29T07:52:05.421Z,49.91
2018-05-29T07:54:36.274Z,49.93
2018-05-29T07:57:06.982Z,49.99
2018-05-29T07:59:38.477Z,49.97
2018-05-29T08:02:09.179Z,49.92
2018-05-29T08:04:40.674Z,49.91
2018-05-29T08:07:11.375Z,49.93
2018-05-29T08:09:42.111Z,49.93
2018-05-29T08:12:13.584Z,49.94
2018-05-29T08:14:44.318Z,50.04
2018-05-29T08:17:15.019Z,50.06
2018-05-29T08:19:45.744Z,50.06
2018-05-29T08:22:16.444Z,50.10
2018-05-29T08:24:47.163Z,50.12
2018-05-29T08:27:17.873Z,50.14
2018-05-29T08:29:49.362Z,50.12
2018-05-29T08:32:20.076Z,50.10
2018-05-29T08:34:50.807Z,50.14
2018-05-29T08:37:21.506Z,50.06
2018-05-29T08:39:53.011Z,50.07
2018-05-29T08:42:23.707Z,50.10
2018-05-29T08:44:55.202Z,50.03
2018-05-29T08:47:25.898Z,49.99
2018-05-29T09:01:46.817Z,50.03
2018-05-29T09:04:17.566Z,49.94
2018-05-29T09:06:49.223Z,49.94
2018-05-29T09:09:19.902Z,49.98
2018-05-29T09:11:50.637Z,49.97
2018-05-29T09:27:00.043Z,50.01
2018-05-29T09:29:30.718Z,49.96
2018-05-29T09:32:01.490Z,49.90
2018-05-29T09:34:32.303Z,49.83
2018-05-29T09:37:03.011Z,49.84
2018-05-29T09:39:33.699Z,49.93
2018-05-29T09:54:15.091Z,49.51
2018-05-29T09:56:45.759Z,49.42
2018-05-29T09:59:16.432Z,49.33
2018-05-29T10:01:47.262Z,49.26
2018-05-29T10:04:17.939Z,49.18
2018-05-29T10:06:49.342Z,49.18
2018-05-29T10:09:20.018Z,49.19
2018-05-29T10:11:52.166Z,49.21
2018-05-29T10:14:22.247Z,49.05
2018-05-29T10:16:52.679Z,49.07
2018-05-29T10:19:23.137Z,49.09
2018-05-29T10:21:54.172Z,49.09
2018-05-29T10:24:24.299Z,49.25
2018-05-29T10:26:54.945Z,49.16
2018-05-29T10:29:25.394Z,49.01
2018-05-29T10:31:55.478Z,49.04
2018-05-29T10:34:25.918Z,49.03
2018-05-29T10:36:56.738Z,49.01
2018-05-29T10:39:27.611Z,49.05
2018-05-29T10:41:57.683Z,49.07
2018-05-29T10:44:28.550Z,49.05
2018-05-29T10:46:59.190Z,49.10
2018-05-29T10:49:29.297Z,49.14
2018-05-29T10:51:59.913Z,49.14
2018-05-29T10:54:30.015Z,49.17
2018-05-29T10:58:35.786Z,49.16
2018-05-29T11:01:07.262Z,49.17
2018-05-29T11:03:38.094Z,49.12
2018-05-29T11:06:08.969Z,49.11
2018-05-29T11:08:40.173Z,49.07
2018-05-29T11:11:10.272Z,49.14
2018-05-29T11:13:41.447Z,49.20
2018-05-29T11:16:12.085Z,49.17
2018-05-29T11:18:42.716Z,49.28
2018-05-29T11:21:13.578Z,49.34
2018-05-29T11:23:44.191Z,49.36
2018-05-29T11:26:15.060Z,49.41
2018-05-29T11:28:45.679Z,49.31
2018-05-29T11:31:15.777Z,49.19
2018-05-29T11:33:46.818Z,49.10
2018-05-29T11:36:17.254Z,49.03
2018-05-29T11:38:47.871Z,48.93
2018-05-29T11:41:18.752Z,48.96
2018-05-29T11:55:25.099Z,49.23
2018-05-29T11:57:55.707Z,49.23
2018-05-29T12:00:26.363Z,49.19
2018-05-29T12:02:56.431Z,49.16
2018-05-29T12:05:27.651Z,49.17
2018-05-29T12:07:58.273Z,49.17
2018-05-29T12:10:28.571Z,49.21
2018-05-29T12:12:59.039Z,49.18
2018-05-29T12:15:29.273Z,49.28
2018-05-29T12:17:59.695Z,49.37
2018-05-29T12:20:30.341Z,49.38
2018-05-29T12:23:00.403Z,49.42
2018-05-29T12:25:30.879Z,49.49
2018-05-29T12:28:00.938Z,49.52
2018-05-29T12:30:31.834Z,49.63
2018-05-29T12:33:02.241Z,49.64
2018-05-29T12:35:32.348Z,49.71
2018-05-29T12:38:02.963Z,49.73
2018-05-29T12:40:33.615Z,49.69
2018-05-29T12:43:04.451Z,49.85
2018-05-29T12:45:35.315Z,49.76
2018-05-29T12:48:05.387Z,49.81
2018-05-29T12:50:36.277Z,49.88
2018-05-29T12:53:07.007Z,49.97
2018-05-29T12:55:37.094Z,49.98
2018-05-29T12:58:08.254Z,50.01
2018-05-29T13:00:38.905Z,50.04
2018-05-29T13:03:08.971Z,50.05
2018-05-29T13:05:40.375Z,49.99
2018-05-29T13:08:10.452Z,50.02
2018-05-29T13:10:41.649Z,50.01
2018-05-29T13:13:11.714Z,50.04
2018-05-29T13:15:41.831Z,49.95
2018-05-29T13:18:12.229Z,50.02
2018-05-29T13:22:47.060Z,50.11
2018-05-29T13:25:17.122Z,50.06
2018-05-29T13:27:48.385Z,50.08
2018-05-29T13:30:18.601Z,50.11
2018-05-29T13:32:48.698Z,50.17
2018-05-29T13:35:18.837Z,50.17
2018-05-29T13:37:49.429Z,50.28
2018-05-29T13:40:19.492Z,50.26
2018-05-29T13:42:50.375Z,50.29
2018-05-29T13:45:20.779Z,50.29
2018-05-29T13:47:51.429Z,50.30
2018-05-29T13:50:22.262Z,50.37
2018-05-29T13:52:52.687Z,50.33
2018-05-29T13:55:23.530Z,50.36
2018-05-29T13:59:08.727Z,50.36
2018-05-29T14:01:38.806Z,50.41
2018-05-29T14:04:09.711Z,50.40
2018-05-29T14:06:40.119Z,50.45
2018-05-29T14:09:10.211Z,50.46
2018-05-29T14:11:40.606Z,50.49
2018-05-29T14:15:12.872Z,50.55
2018-05-29T14:17:42.942Z,50.67
2018-05-29T14:20:13.805Z,50.52
2018-05-29T14:22:44.223Z,50.68
2018-05-29T14:25:15.083Z,50.66
2018-05-29T14:27:45.494Z,50.63
2018-05-29T14:30:15.593Z,50.65
2018-05-29T14:32:46.450Z,50.69
2018-05-29T14:46:07.130Z,50.72
2018-05-29T14:48:37.754Z,50.86
2018-05-29T14:51:08.611Z,50.88
2018-05-29T14:53:38.690Z,50.77
2018-05-29T14:56:09.899Z,50.69
2018-05-29T14:58:40.579Z,50.71
2018-05-29T15:01:10.815Z,50.69
2018-05-29T15:03:41.431Z,50.68
2018-05-29T15:06:11.523Z,50.69
2018-05-29T15:08:41.598Z,50.67
2018-05-29T15:11:12.243Z,50.67
2018-05-29T15:13:42.319Z,50.64
2018-05-29T15:16:13.505Z,50.68
2018-05-29T15:18:43.580Z,50.53
2018-05-29T15:21:14.791Z,50.59
2018-05-29T15:23:44.866Z,50.67
2018-05-29T15:26:15.507Z,50.64
2018-05-29T15:28:46.559Z,50.55
2018-05-29T15:31:17.206Z,50.54
2018-05-29T15:33:47.268Z,50.57
2018-05-29T15:36:17.359Z,50.51
2018-05-29T15:38:47.427Z,50.48
2018-05-29T15:41:18.070Z,50.49
2018-05-29T15:43:48.164Z,50.49
2018-05-29T15:46:18.579Z,50.44
2018-05-29T15:48:48.643Z,50.41
2018-05-29T15:51:19.084Z,50.47
2018-05-29T15:53:49.465Z,50.37
2018-05-29T15:56:19.558Z,50.34
2018-05-29T15:58:56.195Z,50.35
2018-05-29T16:01:26.337Z,50.39
2018-05-29T16:03:56.415Z,50.39
2018-05-29T16:06:27.606Z,50.41
2018-05-29T16:08:58.227Z,50.30
2018-05-29T16:11:28.878Z,50.30
2018-05-29T16:13:58.997Z,50.38
2018-05-29T16:18:51.175Z,50.39
2018-05-29T16:21:21.825Z,50.65
2018-05-29T16:23:51.922Z,50.91
2018-05-29T16:26:22.534Z,50.86
2018-05-29T16:28:52.641Z,51.00
2018-05-29T16:31:23.472Z,51.24
2018-05-29T16:33:54.353Z,51.28
2018-05-29T16:36:24.771Z,51.54
2018-05-29T16:38:55.439Z,51.65
2018-05-29T16:41:25.534Z,51.65
2018-05-29T16:43:55.616Z,51.67
2018-05-29T16:46:26.244Z,51.82
2018-05-29T16:48:56.388Z,51.81
2018-05-29T16:51:26.621Z,51.91
2018-05-29T16:53:57.063Z,51.95
2018-05-29T16:56:27.140Z,52.06
2018-05-29T16:58:57.429Z,52.09
2018-05-29T17:01:27.527Z,52.11
2018-05-29T17:03:57.985Z,51.94
2018-05-29T17:06:28.613Z,51.92
2018-05-29T17:08:58.723Z,52.00
2018-05-29T17:11:29.127Z,51.91
2018-05-29T17:13:59.229Z,51.98
2018-05-29T17:16:30.079Z,52.03
2018-05-29T17:19:00.495Z,52.03
2018-05-29T17:21:31.335Z,52.02
2018-05-29T17:24:01.766Z,52.10
2018-05-29T17:26:32.599Z,51.82
2018-05-29T17:29:03.271Z,51.86
2018-05-29T17:31:33.905Z,51.84
2018-05-29T17:34:03.990Z,51.76
2018-05-29T17:36:34.827Z,51.81
2018-05-29T17:39:04.801Z,51.73
2018-05-29T17:41:35.411Z,51.61
2018-05-29T17:44:06.050Z,51.92
2018-05-29T17:46:36.140Z,51.67
2018-05-29T17:49:06.782Z,51.78
2018-05-29T17:51:36.865Z,51.67
2018-05-29T17:54:08.355Z,51.68
2018-05-29T17:56:38.454Z,51.77
2018-05-29T17:59:08.563Z,51.90
2018-05-29T18:01:40.026Z,51.87
2018-05-29T18:04:10.887Z,52.02
2018-05-29T18:06:41.462Z,52.14
2018-05-29T18:09:11.566Z,52.14
2018-05-29T18:11:41.632Z,52.28
2018-05-29T18:14:12.059Z,52.22
2018-05-29T18:16:42.898Z,52.94
2018-05-29T18:19:14.378Z,52.74
2018-05-29T18:21:44.454Z,53.08
2018-05-29T18:24:15.347Z,53.23
2018-05-29T18:26:46.039Z,52.92
2018-05-29T18:29:16.326Z,52.97
2018-05-29T18:31:47.734Z,53.28
2018-05-29T18:34:18.438Z,53.01
2018-05-29T18:36:49.149Z,53.66
2018-05-29T18:39:20.062Z,53.75
2018-05-29T18:41:50.767Z,53.73
2018-05-29T18:44:22.274Z,53.65
2018-05-29T18:46:53.110Z,53.58
2018-05-29T19:11:57.270Z,54.03
2018-05-29T19:14:27.362Z,54.03
2018-05-29T19:16:58.151Z,53.86
2018-05-29T19:19:29.054Z,54.06
2018-05-29T19:21:59.786Z,54.32
2018-05-29T19:24:30.454Z,54.27
2018-05-29T19:27:01.219Z,54.35
2018-05-29T19:29:32.414Z,54.29
2018-05-29T19:32:02.550Z,54.38
2018-05-29T19:45:19.479Z,54.05
2018-05-29T19:47:50.179Z,54.07
2018-05-29T19:50:21.642Z,54.20
2018-05-29T19:52:52.330Z,54.12
2018-05-29T19:55:23.028Z,54.06
2018-05-29T19:57:53.764Z,54.29
2018-05-29T20:00:24.475Z,54.34
2018-05-29T20:02:55.890Z,54.15
2018-05-29T20:05:26.565Z,54.14
2018-05-29T20:07:57.206Z,54.02
2018-05-29T20:10:28.662Z,53.96
2018-05-29T20:12:58.959Z,53.93
2018-05-29T20:15:29.102Z,53.81
2018-05-29T20:17:59.812Z,53.81
2018-05-29T20:20:30.548Z,53.80
2018-05-29T20:23:01.251Z,53.69
2018-05-29T20:25:32.755Z,53.73
2018-05-29T20:28:04.167Z,53.67
2018-05-29T20:30:34.824Z,53.70
2018-05-29T20:33:05.533Z,53.69
2018-05-29T20:35:36.400Z,53.63
2018-05-29T20:38:06.837Z,53.65
2018-05-29T20:40:37.256Z,53.59
2018-05-29T20:43:07.318Z,53.58
2018-05-29T20:45:38.556Z,53.57
2018-05-29T20:48:08.649Z,53.54
2018-05-29T20:50:39.071Z,53.50
2018-05-29T20:53:09.133Z,53.50
2018-05-29T20:55:40.042Z,53.47
2018-05-29T20:58:10.151Z,53.44
2018-05-29T21:00:40.582Z,53.38
2018-05-29T21:03:10.714Z,53.39
2018-05-29T21:05:40.831Z,53.30
2018-05-29T21:08:11.250Z,53.28
2018-05-29T21:10:41.339Z,53.23
2018-05-29T21:13:11.959Z,53.22
2018-05-29T21:15:42.045Z,53.13
2018-05-29T21:18:12.111Z,53.11
2018-05-29T21:20:43.491Z,53.09
2018-05-29T21:23:14.322Z,53.12
2018-05-29T21:25:44.430Z,53.11
2018-05-29T21:28:15.310Z,53.10
2018-05-29T21:30:46.059Z,53.02
2018-05-29T21:33:16.701Z,52.97
2018-05-29T21:35:47.275Z,52.93
2018-05-29T21:38:17.685Z,52.92
2018-05-29T21:40:48.559Z,52.91
2018-05-29T21:43:18.947Z,52.88
2018-05-29T21:45:49.031Z,52.85
2018-05-29T21:48:19.642Z,52.87
2018-05-29T21:50:49.794Z,52.81
2018-05-29T21:53:19.866Z,52.81
2018-05-29T21:55:49.970Z,52.74
2018-05-29T21:58:20.635Z,52.79
2018-05-29T22:00:50.747Z,52.76
2018-05-29T22:03:20.854Z,52.73
2018-05-29T22:05:52.364Z,52.70
2018-05-29T22:08:22.466Z,52.65
2018-05-29T22:10:53.102Z,52.61
2018-05-29T22:13:23.671Z,52.55
2018-05-29T22:15:54.558Z,52.55
2018-05-29T22:18:25.138Z,52.48
2018-05-29T22:20:56.425Z,52.39
2018-05-29T22:23:27.358Z,52.37
2018-05-29T22:25:57.807Z,52.46
2018-05-29T22:28:28.406Z,52.65
2018-05-29T22:30:58.501Z,52.86
2018-05-29T22:33:29.687Z,52.85
2018-05-29T22:36:01.087Z,52.81
2018-05-29T22:38:31.160Z,52.74
2018-05-29T22:41:01.260Z,52.60
2018-05-29T22:43:31.840Z,52.50
2018-05-29T22:46:03.226Z,52.39
2018-05-29T22:48:47.935Z,52.33
2018-05-29T22:51:18.799Z,52.27
2018-05-29T22:53:48.883Z,52.20
2018-05-29T22:56:19.742Z,52.16
2018-05-29T22:58:50.144Z,52.16
2018-05-29T23:01:20.734Z,52.15
2018-05-29T23:03:51.325Z,52.14
2018-05-29T23:06:22.707Z,52.11
2018-05-29T23:08:52.775Z,52.12
2018-05-29T23:11:22.902Z,52.13
2018-05-29T23:13:53.313Z,52.16
2018-05-29T23:16:23.937Z,52.16
2018-05-29T23:18:54.551Z,52.13
2018-05-29T23:21:24.650Z,52.06
2018-05-29T23:23:55.178Z,52.03
2018-05-29T23:26:25.270Z,52.10
2018-05-29T23:28:55.362Z,52.12
2018-05-29T23:31:25.482Z,52.17
2018-05-29T23:33:56.162Z,52.16
2018-05-29T23:36:27.025Z,52.18
2018-05-29T23:38:57.654Z,52.17
2018-05-29T23:41:28.263Z,52.12
2018-05-29T23:43:59.618Z,52.06
2018-05-29T23:46:30.982Z,52.06
2018-05-29T23:49:01.054Z,52.01
2018-05-29T23:51:31.147Z,51.97
2018-05-29T23:54:01.714Z,51.95
2018-05-29T23:56:32.595Z,51.90
2018-05-29T23:59:03.313Z,51.83
